Terminal Aerodrome Forecast
Issued by NWS

Home | Current Version | Previous Version | Text Only | Print | Product List | Glossary On
Versions: 1 2 3 4 5 6 7 8 9 10 11 12 13 14
000
FTAK31 PAJN 020521
TAFAGY
TAF
PAGY 020521Z 0206/0306 VRB03KT P6SM OVC060
     FM021200 00000KT 6SM BR VCSH BKN015 OVC025
     FM021800 21005KT P6SM -SHRA SCT025 BKN040 OVC060
      AMD LTD TO CLD VIS AND WIND=

USA.gov is the U.S. government's official web portal to all federal, state and local government web resources and services.